sensor_id;sensor_type;location;lat;lon;timestamp;noise_LAeq;noise_LA_min;noise_LA_max;noise_LA01;noise_LA95
36217;Laerm;22259;48.792;8.964;2023-05-31T00:01:01;41.90;39.25;45.02;;
36217;Laerm;22259;48.792;8.964;2023-05-31T00:03:27;42.24;39.12;45.61;;
36217;Laerm;22259;48.792;8.964;2023-05-31T00:05:52;42.15;39.58;45.90;;
36217;Laerm;22259;48.792;8.964;2023-05-31T00:08:18;42.85;39.89;46.17;;
36217;Laerm;22259;48.792;8.964;2023-05-31T00:10:43;42.23;38.74;44.90;;
36217;Laerm;22259;48.792;8.964;2023-05-31T00:13:09;42.04;38.67;44.54;;
36217;Laerm;22259;48.792;8.964;2023-05-31T00:15:34;42.03;39.08;44.96;;
36217;Laerm;22259;48.792;8.964;2023-05-31T00:18:00;41.88;38.67;44.26;;
36217;Laerm;22259;48.792;8.964;2023-05-31T00:20:26;42.18;39.55;44.39;;
36217;Laerm;22259;48.792;8.964;2023-05-31T00:22:51;42.14;38.88;46.91;;
36217;Laerm;22259;48.792;8.964;2023-05-31T00:25:17;41.62;38.92;44.08;;
36217;Laerm;22259;48.792;8.964;2023-05-31T00:27:42;41.84;39.08;44.92;;
36217;Laerm;22259;48.792;8.964;2023-05-31T00:30:08;42.19;39.15;46.72;;
36217;Laerm;22259;48.792;8.964;2023-05-31T00:32:34;43.25;40.00;47.06;;
36217;Laerm;22259;48.792;8.964;2023-05-31T00:35:00;62.29;39.52;77.49;;
36217;Laerm;22259;48.792;8.964;2023-05-31T00:37:25;42.83;38.78;47.99;;
36217;Laerm;22259;48.792;8.964;2023-05-31T00:39:51;42.83;39.73;46.60;;
36217;Laerm;22259;48.792;8.964;2023-05-31T00:42:16;42.17;39.15;45.43;;
36217;Laerm;22259;48.792;8.964;2023-05-31T00:44:42;42.64;40.05;45.27;;
36217;Laerm;22259;48.792;8.964;2023-05-31T00:47:10;42.58;39.95;45.01;;
36217;Laerm;22259;48.792;8.964;2023-05-31T00:49:36;42.69;40.00;45.00;;
36217;Laerm;22259;48.792;8.964;2023-05-31T00:52:02;42.03;39.43;44.61;;
36217;Laerm;22259;48.792;8.964;2023-05-31T00:54:28;42.67;39.75;44.87;;
36217;Laerm;22259;48.792;8.964;2023-05-31T00:56:53;42.54;39.55;45.48;;
36217;Laerm;22259;48.792;8.964;2023-05-31T00:59:20;42.32;38.98;44.84;;
36217;Laerm;22259;48.792;8.964;2023-05-31T01:01:45;42.88;39.92;45.10;;
36217;Laerm;22259;48.792;8.964;2023-05-31T01:04:10;42.34;39.75;44.43;;
36217;Laerm;22259;48.792;8.964;2023-05-31T01:06:36;42.90;39.81;47.09;;
36217;Laerm;22259;48.792;8.964;2023-05-31T01:09:05;42.84;40.50;44.87;;
36217;Laerm;22259;48.792;8.964;2023-05-31T01:11:50;42.71;39.46;46.03;;
36217;Laerm;22259;48.792;8.964;2023-05-31T01:14:42;42.39;39.84;45.56;;
36217;Laerm;22259;48.792;8.964;2023-05-31T01:17:31;42.84;39.52;46.22;;
36217;Laerm;22259;48.792;8.964;2023-05-31T01:20:04;42.91;39.28;46.66;;
36217;Laerm;22259;48.792;8.964;2023-05-31T01:23:20;42.67;39.15;46.11;;
36217;Laerm;22259;48.792;8.964;2023-05-31T01:26:32;42.79;39.55;57.77;;
36217;Laerm;22259;48.792;8.964;2023-05-31T01:29:02;43.36;39.28;47.77;;
36217;Laerm;22259;48.792;8.964;2023-05-31T01:31:30;43.53;39.92;47.35;;
36217;Laerm;22259;48.792;8.964;2023-05-31T01:33:55;44.15;40.05;49.94;;
36217;Laerm;22259;48.792;8.964;2023-05-31T01:36:21;43.10;39.75;46.75;;
36217;Laerm;22259;48.792;8.964;2023-05-31T01:38:47;43.90;40.05;49.39;;
36217;Laerm;22259;48.792;8.964;2023-05-31T01:41:12;44.18;40.71;49.73;;
36217;Laerm;22259;48.792;8.964;2023-05-31T01:43:40;43.56;39.31;50.32;;
36217;Laerm;22259;48.792;8.964;2023-05-31T01:46:06;43.46;40.67;45.99;;
36217;Laerm;22259;48.792;8.964;2023-05-31T01:48:32;44.54;41.04;49.47;;
36217;Laerm;22259;48.792;8.964;2023-05-31T01:50:58;56.56;41.06;85.70;;
36217;Laerm;22259;48.792;8.964;2023-05-31T01:53:24;43.53;40.89;55.02;;
36217;Laerm;22259;48.792;8.964;2023-05-31T01:55:50;43.14;40.23;47.68;;
36217;Laerm;22259;48.792;8.964;2023-05-31T01:58:16;44.07;40.50;50.52;;
36217;Laerm;22259;48.792;8.964;2023-05-31T02:00:42;47.03;40.38;62.70;;
36217;Laerm;22259;48.792;8.964;2023-05-31T02:03:08;43.76;40.53;46.70;;
36217;Laerm;22259;48.792;8.964;2023-05-31T02:05:33;58.14;40.73;76.93;;
36217;Laerm;22259;48.792;8.964;2023-05-31T02:07:59;44.24;41.42;52.77;;
36217;Laerm;22259;48.792;8.964;2023-05-31T02:10:24;59.65;41.10;73.86;;
36217;Laerm;22259;48.792;8.964;2023-05-31T02:12:49;43.62;40.50;46.69;;
36217;Laerm;22259;48.792;8.964;2023-05-31T02:15:20;44.33;41.53;49.31;;
36217;Laerm;22259;48.792;8.964;2023-05-31T02:17:46;48.93;40.76;66.31;;
36217;Laerm;22259;48.792;8.964;2023-05-31T02:20:19;44.48;41.82;51.03;;
36217;Laerm;22259;48.792;8.964;2023-05-31T02:22:44;44.19;41.50;47.64;;
36217;Laerm;22259;48.792;8.964;2023-05-31T02:25:11;44.63;42.19;48.51;;
36217;Laerm;22259;48.792;8.964;2023-05-31T02:27:36;45.74;41.96;53.11;;
36217;Laerm;22259;48.792;8.964;2023-05-31T02:30:03;57.12;41.44;71.08;;
36217;Laerm;22259;48.792;8.964;2023-05-31T02:32:30;53.33;41.94;66.58;;
36217;Laerm;22259;48.792;8.964;2023-05-31T02:34:56;54.16;42.41;67.55;;
36217;Laerm;22259;48.792;8.964;2023-05-31T02:37:22;54.11;42.30;67.27;;
36217;Laerm;22259;48.792;8.964;2023-05-31T02:39:49;55.32;42.49;70.55;;
36217;Laerm;22259;48.792;8.964;2023-05-31T02:42:18;55.22;42.44;68.57;;
36217;Laerm;22259;48.792;8.964;2023-05-31T02:44:43;56.01;42.46;70.24;;
36217;Laerm;22259;48.792;8.964;2023-05-31T02:47:09;54.55;43.28;68.10;;
36217;Laerm;22259;48.792;8.964;2023-05-31T02:49:34;54.45;43.12;67.70;;
36217;Laerm;22259;48.792;8.964;2023-05-31T02:51:59;54.59;43.44;67.62;;
36217;Laerm;22259;48.792;8.964;2023-05-31T02:54:25;54.59;42.86;67.61;;
36217;Laerm;22259;48.792;8.964;2023-05-31T02:56:51;51.79;42.71;66.94;;
36217;Laerm;22259;48.792;8.964;2023-05-31T02:59:16;45.95;42.66;56.00;;
36217;Laerm;22259;48.792;8.964;2023-05-31T03:01:42;51.31;43.06;67.97;;
36217;Laerm;22259;48.792;8.964;2023-05-31T03:04:07;54.63;42.61;70.83;;
36217;Laerm;22259;48.792;8.964;2023-05-31T03:06:33;57.30;43.55;68.16;;
36217;Laerm;22259;48.792;8.964;2023-05-31T03:08:59;47.32;42.97;60.88;;
36217;Laerm;22259;48.792;8.964;2023-05-31T03:11:24;51.76;42.14;70.29;;
36217;Laerm;22259;48.792;8.964;2023-05-31T03:13:50;49.25;42.56;61.62;;
36217;Laerm;22259;48.792;8.964;2023-05-31T03:16:16;54.84;43.06;68.83;;
36217;Laerm;22259;48.792;8.964;2023-05-31T03:18:41;44.97;42.38;55.06;;
36217;Laerm;22259;48.792;8.964;2023-05-31T03:21:07;45.61;42.69;55.81;;
36217;Laerm;22259;48.792;8.964;2023-05-31T03:23:32;53.24;42.49;70.16;;
36217;Laerm;22259;48.792;8.964;2023-05-31T03:25:58;44.80;42.14;53.82;;
36217;Laerm;22259;48.792;8.964;2023-05-31T03:28:23;59.27;42.21;71.86;;
36217;Laerm;22259;48.792;8.964;2023-05-31T03:30:49;56.07;42.11;73.73;;
36217;Laerm;22259;48.792;8.964;2023-05-31T03:33:17;50.20;43.12;65.31;;
36217;Laerm;22259;48.792;8.964;2023-05-31T03:35:42;50.25;43.02;65.76;;
36217;Laerm;22259;48.792;8.964;2023-05-31T03:38:07;46.47;42.76;57.91;;
36217;Laerm;22259;48.792;8.964;2023-05-31T03:40:33;47.65;41.82;66.40;;
36217;Laerm;22259;48.792;8.964;2023-05-31T03:42:58;46.47;42.03;65.74;;
36217;Laerm;22259;48.792;8.964;2023-05-31T03:45:24;53.71;41.91;69.41;;
36217;Laerm;22259;48.792;8.964;2023-05-31T03:47:50;50.72;41.88;67.92;;
36217;Laerm;22259;48.792;8.964;2023-05-31T03:50:16;45.11;42.29;60.69;;
36217;Laerm;22259;48.792;8.964;2023-05-31T03:52:41;58.70;42.85;70.23;;
36217;Laerm;22259;48.792;8.964;2023-05-31T03:55:07;44.85;42.72;49.32;;
36217;Laerm;22259;48.792;8.964;2023-05-31T03:57:33;44.34;41.93;61.61;;
36217;Laerm;22259;48.792;8.964;2023-05-31T03:59:58;46.48;42.50;65.73;;
36217;Laerm;22259;48.792;8.964;2023-05-31T04:02:25;54.78;42.27;69.72;;
36217;Laerm;22259;48.792;8.964;2023-05-31T04:04:50;44.20;41.89;53.97;;
36217;Laerm;22259;48.792;8.964;2023-05-31T04:07:16;47.83;42.08;64.80;;
36217;Laerm;22259;48.792;8.964;2023-05-31T04:09:41;44.02;41.96;49.93;;
36217;Laerm;22259;48.792;8.964;2023-05-31T04:12:07;44.23;42.08;47.63;;
36217;Laerm;22259;48.792;8.964;2023-05-31T04:14:32;44.19;41.99;50.28;;
36217;Laerm;22259;48.792;8.964;2023-05-31T04:16:58;54.25;42.50;69.06;;
36217;Laerm;22259;48.792;8.964;2023-05-31T04:19:23;44.45;41.91;49.73;;
36217;Laerm;22259;48.792;8.964;2023-05-31T04:21:49;44.41;42.09;48.52;;
36217;Laerm;22259;48.792;8.964;2023-05-31T04:24:15;45.35;42.32;55.75;;
36217;Laerm;22259;48.792;8.964;2023-05-31T04:26:40;44.27;42.35;48.81;;
36217;Laerm;22259;48.792;8.964;2023-05-31T04:29:06;44.16;41.77;49.33;;
36217;Laerm;22259;48.792;8.964;2023-05-31T04:31:31;51.72;42.19;66.55;;
36217;Laerm;22259;48.792;8.964;2023-05-31T04:34:01;53.34;41.99;68.11;;
36217;Laerm;22259;48.792;8.964;2023-05-31T04:36:29;50.19;41.66;67.43;;
36217;Laerm;22259;48.792;8.964;2023-05-31T04:38:57;44.25;42.09;50.51;;
36217;Laerm;22259;48.792;8.964;2023-05-31T04:41:23;48.13;41.77;63.75;;
36217;Laerm;22259;48.792;8.964;2023-05-31T04:43:55;44.61;42.04;52.10;;
36217;Laerm;22259;48.792;8.964;2023-05-31T04:46:22;53.60;42.38;68.41;;
36217;Laerm;22259;48.792;8.964;2023-05-31T04:48:47;50.78;42.71;65.31;;
36217;Laerm;22259;48.792;8.964;2023-05-31T04:51:18;44.72;42.64;53.09;;
36217;Laerm;22259;48.792;8.964;2023-05-31T04:53:44;44.66;41.98;53.15;;
36217;Laerm;22259;48.792;8.964;2023-05-31T04:56:10;44.65;42.56;49.85;;
36217;Laerm;22259;48.792;8.964;2023-05-31T04:58:37;45.20;42.72;54.71;;
36217;Laerm;22259;48.792;8.964;2023-05-31T05:01:03;54.67;42.40;69.77;;
36217;Laerm;22259;48.792;8.964;2023-05-31T05:03:29;49.51;42.72;64.65;;
36217;Laerm;22259;48.792;8.964;2023-05-31T05:05:56;49.54;42.47;66.70;;
36217;Laerm;22259;48.792;8.964;2023-05-31T05:08:21;46.83;42.33;65.31;;
36217;Laerm;22259;48.792;8.964;2023-05-31T05:10:47;49.51;42.09;70.78;;
36217;Laerm;22259;48.792;8.964;2023-05-31T05:13:13;55.51;41.59;69.70;;
36217;Laerm;22259;48.792;8.964;2023-05-31T05:15:38;44.90;42.32;52.37;;
36217;Laerm;22259;48.792;8.964;2023-05-31T05:18:04;54.01;42.52;67.10;;
36217;Laerm;22259;48.792;8.964;2023-05-31T05:20:29;49.61;42.09;67.41;;
36217;Laerm;22259;48.792;8.964;2023-05-31T05:22:55;44.64;42.56;51.85;;
36217;Laerm;22259;48.792;8.964;2023-05-31T05:25:20;44.26;42.14;48.07;;
36217;Laerm;22259;48.792;8.964;2023-05-31T05:27:47;45.22;42.11;57.27;;
36217;Laerm;22259;48.792;8.964;2023-05-31T05:30:13;52.07;42.24;68.96;;
36217;Laerm;22259;48.792;8.964;2023-05-31T05:32:39;54.78;42.79;68.05;;
36217;Laerm;22259;48.792;8.964;2023-05-31T05:35:05;45.01;42.29;52.26;;
36217;Laerm;22259;48.792;8.964;2023-05-31T05:37:31;48.40;42.30;64.27;;
36217;Laerm;22259;48.792;8.964;2023-05-31T05:39:57;44.95;42.09;57.48;;
36217;Laerm;22259;48.792;8.964;2023-05-31T05:42:24;49.76;42.29;66.40;;
36217;Laerm;22259;48.792;8.964;2023-05-31T05:44:49;53.63;42.88;70.63;;
36217;Laerm;22259;48.792;8.964;2023-05-31T05:47:15;51.89;43.01;66.79;;
36217;Laerm;22259;48.792;8.964;2023-05-31T05:49:41;59.90;42.19;75.60;;
36217;Laerm;22259;48.792;8.964;2023-05-31T05:52:06;44.40;41.89;50.50;;
36217;Laerm;22259;48.792;8.964;2023-05-31T05:54:32;61.08;42.13;76.06;;
36217;Laerm;22259;48.792;8.964;2023-05-31T05:56:57;45.68;41.89;67.00;;
36217;Laerm;22259;48.792;8.964;2023-05-31T05:59:23;49.47;42.40;61.79;;
36217;Laerm;22259;48.792;8.964;2023-05-31T06:01:48;53.46;42.58;68.01;;
36217;Laerm;22259;48.792;8.964;2023-05-31T06:04:14;51.99;41.81;65.59;;
36217;Laerm;22259;48.792;8.964;2023-05-31T06:06:39;58.85;41.63;80.41;;
36217;Laerm;22259;48.792;8.964;2023-05-31T06:09:05;45.66;41.04;70.69;;
36217;Laerm;22259;48.792;8.964;2023-05-31T06:11:32;48.33;42.13;63.68;;
36217;Laerm;22259;48.792;8.964;2023-05-31T06:13:58;44.58;41.98;53.11;;
36217;Laerm;22259;48.792;8.964;2023-05-31T06:16:23;55.43;41.86;69.21;;
36217;Laerm;22259;48.792;8.964;2023-05-31T06:18:49;44.14;41.88;49.32;;
36217;Laerm;22259;48.792;8.964;2023-05-31T06:21:15;43.82;41.42;56.42;;
36217;Laerm;22259;48.792;8.964;2023-05-31T06:23:41;43.45;41.26;49.64;;
36217;Laerm;22259;48.792;8.964;2023-05-31T06:26:06;43.91;41.96;50.10;;
36217;Laerm;22259;48.792;8.964;2023-05-31T06:28:32;44.27;41.63;53.93;;
36217;Laerm;22259;48.792;8.964;2023-05-31T06:30:58;54.46;42.62;69.59;;
36217;Laerm;22259;48.792;8.964;2023-05-31T06:33:25;51.71;42.16;67.66;;
36217;Laerm;22259;48.792;8.964;2023-05-31T06:35:51;50.52;42.29;67.91;;
36217;Laerm;22259;48.792;8.964;2023-05-31T06:38:16;45.01;42.40;49.88;;
36217;Laerm;22259;48.792;8.964;2023-05-31T06:40:43;47.99;42.24;62.56;;
36217;Laerm;22259;48.792;8.964;2023-05-31T06:43:09;51.20;41.86;63.09;;
36217;Laerm;22259;48.792;8.964;2023-05-31T06:45:35;54.05;42.49;69.25;;
36217;Laerm;22259;48.792;8.964;2023-05-31T06:48:01;52.84;42.89;67.24;;
36217;Laerm;22259;48.792;8.964;2023-05-31T06:50:26;45.12;42.37;56.98;;
36217;Laerm;22259;48.792;8.964;2023-05-31T06:52:52;44.83;42.43;54.17;;
36217;Laerm;22259;48.792;8.964;2023-05-31T06:55:17;44.33;42.19;48.30;;
36217;Laerm;22259;48.792;8.964;2023-05-31T06:57:42;46.44;41.48;56.35;;
36217;Laerm;22259;48.792;8.964;2023-05-31T07:00:08;52.18;42.97;66.41;;
36217;Laerm;22259;48.792;8.964;2023-05-31T07:02:35;53.12;42.53;70.91;;
36217;Laerm;22259;48.792;8.964;2023-05-31T07:05:01;61.67;42.46;77.18;;
36217;Laerm;22259;48.792;8.964;2023-05-31T07:07:27;48.57;42.22;66.36;;
36217;Laerm;22259;48.792;8.964;2023-05-31T07:09:52;47.91;42.06;65.61;;
36217;Laerm;22259;48.792;8.964;2023-05-31T07:12:18;48.96;42.30;64.25;;
36217;Laerm;22259;48.792;8.964;2023-05-31T07:14:44;53.05;42.21;68.50;;
36217;Laerm;22259;48.792;8.964;2023-05-31T07:17:09;53.40;42.69;69.60;;
36217;Laerm;22259;48.792;8.964;2023-05-31T07:19:48;44.98;42.16;57.48;;
36217;Laerm;22259;48.792;8.964;2023-05-31T07:22:14;44.83;42.55;57.78;;
36217;Laerm;22259;48.792;8.964;2023-05-31T07:24:40;45.27;42.94;50.72;;
36217;Laerm;22259;48.792;8.964;2023-05-31T07:27:06;44.80;42.14;48.68;;
36217;Laerm;22259;48.792;8.964;2023-05-31T07:29:32;44.91;41.59;61.25;;
36217;Laerm;22259;48.792;8.964;2023-05-31T07:31:58;55.03;42.18;68.03;;
36217;Laerm;22259;48.792;8.964;2023-05-31T07:34:23;45.41;41.51;65.83;;
36217;Laerm;22259;48.792;8.964;2023-05-31T07:36:49;45.09;41.96;63.34;;
36217;Laerm;22259;48.792;8.964;2023-05-31T07:39:14;44.27;41.51;49.15;;
36217;Laerm;22259;48.792;8.964;2023-05-31T07:41:41;44.98;41.72;55.88;;
36217;Laerm;22259;48.792;8.964;2023-05-31T07:44:06;44.23;41.86;51.53;;
36217;Laerm;22259;48.792;8.964;2023-05-31T07:46:32;55.41;42.40;69.10;;
36217;Laerm;22259;48.792;8.964;2023-05-31T07:48:58;45.17;42.69;58.52;;
36217;Laerm;22259;48.792;8.964;2023-05-31T07:51:23;57.21;43.36;76.52;;
36217;Laerm;22259;48.792;8.964;2023-05-31T07:53:48;45.02;42.61;58.72;;
36217;Laerm;22259;48.792;8.964;2023-05-31T07:56:14;46.77;42.43;75.37;;
36217;Laerm;22259;48.792;8.964;2023-05-31T07:58:39;44.79;41.30;56.99;;
36217;Laerm;22259;48.792;8.964;2023-05-31T08:01:05;52.88;42.86;69.57;;
36217;Laerm;22259;48.792;8.964;2023-05-31T08:03:30;52.26;41.44;65.50;;
36217;Laerm;22259;48.792;8.964;2023-05-31T08:05:56;44.64;41.70;54.05;;
36217;Laerm;22259;48.792;8.964;2023-05-31T08:08:21;45.22;42.22;67.10;;
36217;Laerm;22259;48.792;8.964;2023-05-31T08:10:47;45.21;41.48;63.07;;
36217;Laerm;22259;48.792;8.964;2023-05-31T08:13:12;44.55;42.24;50.75;;
36217;Laerm;22259;48.792;8.964;2023-05-31T08:15:38;55.07;42.86;69.92;;
36217;Laerm;22259;48.792;8.964;2023-05-31T08:18:03;44.40;42.06;53.29;;
36217;Laerm;22259;48.792;8.964;2023-05-31T08:20:28;44.74;42.38;50.28;;
36217;Laerm;22259;48.792;8.964;2023-05-31T08:22:54;50.09;42.24;70.70;;
36217;Laerm;22259;48.792;8.964;2023-05-31T08:25:20;44.38;42.13;51.07;;
36217;Laerm;22259;48.792;8.964;2023-05-31T08:27:46;44.05;41.84;48.05;;
36217;Laerm;22259;48.792;8.964;2023-05-31T08:30:11;49.74;42.49;63.57;;
36217;Laerm;22259;48.792;8.964;2023-05-31T08:32:37;51.43;42.26;65.46;;
36217;Laerm;22259;48.792;8.964;2023-05-31T08:35:03;45.28;42.16;56.89;;
36217;Laerm;22259;48.792;8.964;2023-05-31T08:37:31;45.30;42.30;55.53;;
36217;Laerm;22259;48.792;8.964;2023-05-31T08:39:57;44.83;42.01;54.87;;
36217;Laerm;22259;48.792;8.964;2023-05-31T08:42:24;44.92;42.49;49.58;;
36217;Laerm;22259;48.792;8.964;2023-05-31T08:44:50;51.97;42.21;71.01;;
36217;Laerm;22259;48.792;8.964;2023-05-31T08:47:31;51.00;42.16;65.39;;
36217;Laerm;22259;48.792;8.964;2023-05-31T08:50:01;43.93;41.91;51.52;;
36217;Laerm;22259;48.792;8.964;2023-05-31T08:52:28;43.90;41.53;54.45;;
36217;Laerm;22259;48.792;8.964;2023-05-31T08:54:56;44.66;42.26;60.81;;
36217;Laerm;22259;48.792;8.964;2023-05-31T08:57:21;44.27;41.30;49.27;;
36217;Laerm;22259;48.792;8.964;2023-05-31T08:59:47;44.22;41.59;50.48;;
36217;Laerm;22259;48.792;8.964;2023-05-31T09:02:12;54.89;42.17;68.66;;
36217;Laerm;22259;48.792;8.964;2023-05-31T09:04:39;44.50;41.94;49.03;;
36217;Laerm;22259;48.792;8.964;2023-05-31T09:07:05;44.31;42.13;51.44;;
36217;Laerm;22259;48.792;8.964;2023-05-31T09:09:30;44.64;42.43;52.88;;
36217;Laerm;22259;48.792;8.964;2023-05-31T09:11:55;44.88;42.08;53.88;;
36217;Laerm;22259;48.792;8.964;2023-05-31T09:14:22;53.75;41.91;67.87;;
36217;Laerm;22259;48.792;8.964;2023-05-31T09:16:48;50.64;42.09;70.33;;
36217;Laerm;22259;48.792;8.964;2023-05-31T09:19:15;47.63;42.55;64.61;;
36217;Laerm;22259;48.792;8.964;2023-05-31T09:21:41;46.71;42.83;60.87;;
36217;Laerm;22259;48.792;8.964;2023-05-31T09:24:06;50.49;42.11;70.44;;
36217;Laerm;22259;48.792;8.964;2023-05-31T09:26:32;47.41;42.50;77.07;;
36217;Laerm;22259;48.792;8.964;2023-05-31T09:28:58;47.55;42.83;69.51;;
36217;Laerm;22259;48.792;8.964;2023-05-31T09:31:24;47.17;42.66;70.84;;
36217;Laerm;22259;48.792;8.964;2023-05-31T09:33:50;55.29;42.65;71.41;;
36217;Laerm;22259;48.792;8.964;2023-05-31T09:36:27;45.81;42.35;59.16;;
36217;Laerm;22259;48.792;8.964;2023-05-31T09:38:59;57.38;42.88;70.85;;
36217;Laerm;22259;48.792;8.964;2023-05-31T09:41:26;48.31;42.65;72.77;;
36217;Laerm;22259;48.792;8.964;2023-05-31T09:43:52;48.73;42.75;76.81;;
36217;Laerm;22259;48.792;8.964;2023-05-31T09:46:18;55.88;41.93;77.93;;
36217;Laerm;22259;48.792;8.964;2023-05-31T09:48:44;50.73;41.81;66.31;;
36217;Laerm;22259;48.792;8.964;2023-05-31T09:51:10;44.87;43.02;48.97;;
36217;Laerm;22259;48.792;8.964;2023-05-31T09:53:39;45.12;43.02;54.24;;
36217;Laerm;22259;48.792;8.964;2023-05-31T09:56:16;45.62;42.30;57.78;;
36217;Laerm;22259;48.792;8.964;2023-05-31T09:58:42;45.20;41.83;65.25;;
36217;Laerm;22259;48.792;8.964;2023-05-31T10:01:08;52.38;42.44;70.29;;
36217;Laerm;22259;48.792;8.964;2023-05-31T10:03:34;50.84;42.86;70.75;;
36217;Laerm;22259;48.792;8.964;2023-05-31T10:05:59;45.60;42.43;66.08;;
36217;Laerm;22259;48.792;8.964;2023-05-31T10:08:25;44.96;42.24;57.13;;
36217;Laerm;22259;48.792;8.964;2023-05-31T10:10:51;45.11;42.66;64.55;;
36217;Laerm;22259;48.792;8.964;2023-05-31T10:13:18;44.64;41.55;53.09;;
36217;Laerm;22259;48.792;8.964;2023-05-31T10:15:45;53.74;44.00;76.92;;
36217;Laerm;22259;48.792;8.964;2023-05-31T10:18:15;51.16;43.80;65.25;;
36217;Laerm;22259;48.792;8.964;2023-05-31T10:20:43;56.95;43.71;70.77;;
36217;Laerm;22259;48.792;8.964;2023-05-31T10:23:14;46.21;43.71;62.19;;
36217;Laerm;22259;48.792;8.964;2023-05-31T10:26:04;47.49;43.56;63.57;;
36217;Laerm;22259;48.792;8.964;2023-05-31T10:28:37;48.51;43.50;68.58;;
36217;Laerm;22259;48.792;8.964;2023-05-31T10:31:04;53.02;42.01;69.92;;
36217;Laerm;22259;48.792;8.964;2023-05-31T10:33:29;53.19;44.00;70.71;;
36217;Laerm;22259;48.792;8.964;2023-05-31T10:35:56;46.52;43.72;61.48;;
36217;Laerm;22259;48.792;8.964;2023-05-31T10:38:24;46.62;43.80;60.52;;
36217;Laerm;22259;48.792;8.964;2023-05-31T10:40:55;46.24;43.10;62.63;;
36217;Laerm;22259;48.792;8.964;2023-05-31T10:43:24;48.74;43.66;74.56;;
36217;Laerm;22259;48.792;8.964;2023-05-31T10:46:04;52.14;42.49;66.54;;
36217;Laerm;22259;48.792;8.964;2023-05-31T10:48:43;51.13;41.16;65.64;;
36217;Laerm;22259;48.792;8.964;2023-05-31T10:51:10;45.99;43.02;54.30;;
36217;Laerm;22259;48.792;8.964;2023-05-31T10:53:37;45.49;42.58;56.15;;
36217;Laerm;22259;48.792;8.964;2023-05-31T10:56:04;44.27;42.11;50.35;;
36217;Laerm;22259;48.792;8.964;2023-05-31T10:58:36;45.36;42.79;53.32;;
36217;Laerm;22259;48.792;8.964;2023-05-31T11:01:03;52.07;42.08;67.50;;
36217;Laerm;22259;48.792;8.964;2023-05-31T11:03:30;50.83;41.53;65.80;;
36217;Laerm;22259;48.792;8.964;2023-05-31T11:05:59;44.78;41.98;56.61;;
36217;Laerm;22259;48.792;8.964;2023-05-31T11:08:25;48.15;42.55;65.00;;
36217;Laerm;22259;48.792;8.964;2023-05-31T11:10:50;47.05;42.11;65.76;;
36217;Laerm;22259;48.792;8.964;2023-05-31T11:13:16;45.42;42.71;53.67;;
36217;Laerm;22259;48.792;8.964;2023-05-31T11:15:42;53.30;42.24;69.86;;
36217;Laerm;22259;48.792;8.964;2023-05-31T11:18:09;50.89;42.18;66.81;;
36217;Laerm;22259;48.792;8.964;2023-05-31T11:20:34;44.33;42.30;48.18;;
36217;Laerm;22259;48.792;8.964;2023-05-31T11:29:00;44.84;42.13;65.56;;
36217;Laerm;22259;48.792;8.964;2023-05-31T11:34:17;44.94;42.68;61.52;;
36217;Laerm;22259;48.792;8.964;2023-05-31T11:36:43;46.95;42.38;62.03;;
36217;Laerm;22259;48.792;8.964;2023-05-31T11:39:09;44.74;42.40;55.55;;
36217;Laerm;22259;48.792;8.964;2023-05-31T11:41:34;44.15;41.48;56.96;;
36217;Laerm;22259;48.792;8.964;2023-05-31T11:44:01;44.54;42.53;58.60;;
36217;Laerm;22259;48.792;8.964;2023-05-31T11:46:27;55.34;43.00;69.75;;
36217;Laerm;22259;48.792;8.964;2023-05-31T11:48:52;44.72;42.50;51.23;;
36217;Laerm;22259;48.792;8.964;2023-05-31T11:51:18;57.03;42.83;74.77;;
36217;Laerm;22259;48.792;8.964;2023-05-31T11:53:44;44.33;41.79;47.72;;
36217;Laerm;22259;48.792;8.964;2023-05-31T11:56:09;44.72;42.56;57.65;;
36217;Laerm;22259;48.792;8.964;2023-05-31T11:58:39;44.97;41.91;59.81;;
36217;Laerm;22259;48.792;8.964;2023-05-31T12:01:05;53.64;42.06;69.51;;
36217;Laerm;22259;48.792;8.964;2023-05-31T12:03:30;51.82;42.08;65.86;;
36217;Laerm;22259;48.792;8.964;2023-05-31T12:05:56;48.01;41.59;63.71;;
36217;Laerm;22259;48.792;8.964;2023-05-31T12:08:22;48.15;42.46;63.84;;
36217;Laerm;22259;48.792;8.964;2023-05-31T12:10:47;45.36;42.30;61.68;;
36217;Laerm;22259;48.792;8.964;2023-05-31T12:13:16;44.74;42.71;55.97;;
36217;Laerm;22259;48.792;8.964;2023-05-31T12:15:42;53.43;42.49;67.34;;
36217;Laerm;22259;48.792;8.964;2023-05-31T12:18:16;51.22;41.30;68.07;;
36217;Laerm;22259;48.792;8.964;2023-05-31T12:20:44;44.24;41.81;55.92;;
36217;Laerm;22259;48.792;8.964;2023-05-31T12:23:10;44.88;41.70;55.25;;
36217;Laerm;22259;48.792;8.964;2023-05-31T12:25:36;47.10;41.40;69.82;;
36217;Laerm;22259;48.792;8.964;2023-05-31T12:28:02;52.93;41.66;78.10;;
36217;Laerm;22259;48.792;8.964;2023-05-31T12:30:28;53.01;41.75;70.46;;
36217;Laerm;22259;48.792;8.964;2023-05-31T12:32:53;51.68;42.26;67.77;;
36217;Laerm;22259;48.792;8.964;2023-05-31T12:35:22;43.67;41.36;56.67;;
36217;Laerm;22259;48.792;8.964;2023-05-31T12:37:48;43.97;41.14;51.76;;
36217;Laerm;22259;48.792;8.964;2023-05-31T12:40:16;45.30;41.28;73.89;;
36217;Laerm;22259;48.792;8.964;2023-05-31T12:42:47;44.48;42.08;50.52;;
36217;Laerm;22259;48.792;8.964;2023-05-31T12:45:16;53.62;41.42;68.57;;
36217;Laerm;22259;48.792;8.964;2023-05-31T12:47:42;53.31;42.29;71.33;;
36217;Laerm;22259;48.792;8.964;2023-05-31T12:50:08;44.00;41.42;55.27;;
36217;Laerm;22259;48.792;8.964;2023-05-31T12:52:34;44.04;41.06;55.51;;
36217;Laerm;22259;48.792;8.964;2023-05-31T12:55:01;43.37;41.42;49.65;;
36217;Laerm;22259;48.792;8.964;2023-05-31T12:57:27;50.87;42.26;66.95;;
36217;Laerm;22259;48.792;8.964;2023-05-31T13:00:05;44.35;41.61;48.24;;
36217;Laerm;22259;48.792;8.964;2023-05-31T13:02:35;54.15;42.16;69.30;;
36217;Laerm;22259;48.792;8.964;2023-05-31T13:05:01;51.27;41.98;66.98;;
36217;Laerm;22259;48.792;8.964;2023-05-31T13:07:26;46.24;42.16;65.18;;
36217;Laerm;22259;48.792;8.964;2023-05-31T13:09:52;44.56;41.70;64.38;;
36217;Laerm;22259;48.792;8.964;2023-05-31T13:12:19;45.00;42.06;54.49;;
36217;Laerm;22259;48.792;8.964;2023-05-31T13:14:46;55.57;41.89;70.94;;
36217;Laerm;22259;48.792;8.964;2023-05-31T13:17:12;47.88;41.77;70.25;;
36217;Laerm;22259;48.792;8.964;2023-05-31T13:19:38;51.90;41.14;68.97;;
36217;Laerm;22259;48.792;8.964;2023-05-31T13:22:03;46.91;41.40;64.78;;
36217;Laerm;22259;48.792;8.964;2023-05-31T13:24:29;44.25;41.40;54.84;;
36217;Laerm;22259;48.792;8.964;2023-05-31T13:26:55;45.60;42.11;71.43;;
36217;Laerm;22259;48.792;8.964;2023-05-31T13:29:21;60.76;42.41;81.09;;
36217;Laerm;22259;48.792;8.964;2023-05-31T13:31:52;55.14;42.32;69.91;;
36217;Laerm;22259;48.792;8.964;2023-05-31T13:34:18;44.62;41.82;56.95;;
36217;Laerm;22259;48.792;8.964;2023-05-31T13:36:44;51.02;41.98;72.87;;
36217;Laerm;22259;48.792;8.964;2023-05-31T13:39:09;53.12;42.33;67.20;;
36217;Laerm;22259;48.792;8.964;2023-05-31T13:41:38;46.40;41.77;66.99;;
36217;Laerm;22259;48.792;8.964;2023-05-31T13:44:04;46.31;41.53;68.31;;
36217;Laerm;22259;48.792;8.964;2023-05-31T13:46:29;53.58;41.59;66.85;;
36217;Laerm;22259;48.792;8.964;2023-05-31T13:48:55;52.96;41.18;71.45;;
36217;Laerm;22259;48.792;8.964;2023-05-31T13:51:21;52.02;41.99;67.09;;